createdAt,value
2018-09-19T00:02:32.271Z,19.20
2018-09-19T00:05:03.812Z,19.20
2018-09-19T00:07:35.462Z,19.20
2018-09-19T00:10:16.514Z,19.20
2018-09-19T00:12:49.267Z,19.20
2018-09-19T00:15:29.012Z,19.10
2018-09-19T00:18:09.288Z,19.10
2018-09-19T00:20:49.402Z,18.90
2018-09-19T00:23:20.659Z,18.90
2018-09-19T00:25:51.735Z,18.80
2018-09-19T00:28:24.605Z,18.80
2018-09-19T00:30:58.896Z,18.80
2018-09-19T00:33:30.915Z,18.80
2018-09-19T00:36:01.691Z,18.80
2018-09-19T00:38:33.749Z,18.80
2018-09-19T00:41:06.030Z,18.80
2018-09-19T00:43:36.192Z,18.80
2018-09-19T00:46:08.161Z,18.80
2018-09-19T00:48:49.361Z,18.80
2018-09-19T00:51:21.140Z,18.80
2018-09-19T00:54:00.738Z,18.80
2018-09-19T00:56:40.584Z,18.80
2018-09-19T00:59:16.662Z,18.90
2018-09-19T01:01:49.083Z,18.90
2018-09-19T01:04:20.231Z,18.90
2018-09-19T01:07:00.360Z,18.90
2018-09-19T01:09:33.513Z,18.90
2018-09-19T01:12:04.431Z,18.90
2018-09-19T01:14:44.083Z,18.90
2018-09-19T01:17:23.856Z,18.90
2018-09-19T01:20:03.641Z,18.90
2018-09-19T01:22:35.416Z,18.90
2018-09-19T01:25:06.589Z,18.90
2018-09-19T01:27:47.096Z,18.90
2018-09-19T01:30:27.424Z,19.00
2018-09-19T01:33:05.083Z,19.00
2018-09-19T01:35:36.955Z,19.00
2018-09-19T01:38:17.298Z,19.00
2018-09-19T01:40:57.941Z,19.00
2018-09-19T01:43:29.653Z,19.00
2018-09-19T01:46:02.038Z,18.90
2018-09-19T01:54:29.068Z,18.90
2018-09-19T01:57:00.440Z,18.90
2018-09-19T01:59:33.273Z,18.90
2018-09-19T02:02:13.238Z,18.90
2018-09-19T02:04:53.444Z,18.90
2018-09-19T02:07:33.473Z,18.90
2018-09-19T02:10:09.940Z,18.80
2018-09-19T02:12:43.345Z,18.80
2018-09-19T02:15:14.147Z,18.90
2018-09-19T02:17:47.651Z,18.90
2018-09-19T02:20:18.706Z,18.90
2018-09-19T02:22:49.875Z,18.90
2018-09-19T02:25:21.757Z,18.90
2018-09-19T02:28:01.683Z,18.80
2018-09-19T02:30:41.579Z,18.80
2018-09-19T02:33:17.987Z,18.80
2018-09-19T02:35:50.099Z,18.80
2018-09-19T02:38:22.439Z,18.80
2018-09-19T02:40:53.691Z,18.80
2018-09-19T02:43:26.749Z,18.80
2018-09-19T02:46:06.475Z,18.70
2018-09-19T02:48:47.388Z,18.70
2018-09-19T02:51:19.589Z,18.70
2018-09-19T02:53:50.595Z,18.80
2018-09-19T02:56:23.016Z,18.80
2018-09-19T02:58:54.355Z,18.80
2018-09-19T03:01:25.922Z,18.80
2018-09-19T03:03:57.777Z,18.80
2018-09-19T03:06:29.529Z,18.80
2018-09-19T03:09:00.879Z,18.80
2018-09-19T03:11:40.786Z,18.70
2018-09-19T03:14:13.188Z,18.70
2018-09-19T03:16:45.526Z,18.60
2018-09-19T03:19:18.468Z,18.60
2018-09-19T03:21:50.202Z,18.60
2018-09-19T03:24:30.199Z,18.60
2018-09-19T03:27:02.349Z,18.50
2018-09-19T03:29:36.389Z,18.50
2018-09-19T03:32:08.018Z,18.50
2018-09-19T03:34:39.916Z,18.50
2018-09-19T03:37:14.784Z,18.50
2018-09-19T03:39:46.844Z,18.50
2018-09-19T03:42:26.429Z,18.50
2018-09-19T03:44:57.544Z,18.50
2018-09-19T03:47:28.446Z,18.50
2018-09-19T03:50:08.351Z,18.50
2018-09-19T03:52:40.036Z,18.50
2018-09-19T03:55:11.517Z,18.50
2018-09-19T03:57:42.814Z,18.50
2018-09-19T04:00:14.434Z,18.50
2018-09-19T04:02:48.117Z,18.50
2018-09-19T04:05:25.742Z,18.50
2018-09-19T04:07:57.556Z,18.50
2018-09-19T04:10:29.004Z,18.40
2018-09-19T04:13:08.959Z,18.40
2018-09-19T04:15:40.666Z,18.40
2018-09-19T04:18:13.231Z,18.50
2018-09-19T04:20:52.913Z,18.50
2018-09-19T04:23:25.028Z,18.50
2018-09-19T04:26:04.736Z,18.50
2018-09-19T04:28:44.189Z,18.50
2018-09-19T04:31:16.060Z,18.50
2018-09-19T04:33:47.862Z,18.50
2018-09-19T04:36:19.081Z,18.40
2018-09-19T04:38:50.564Z,18.50
2018-09-19T04:41:26.429Z,18.40
2018-09-19T04:43:57.654Z,18.40
2018-09-19T04:46:29.923Z,18.40
2018-09-19T04:49:02.633Z,18.40
2018-09-19T04:51:33.126Z,18.40
2018-09-19T04:54:05.107Z,18.40
2018-09-19T04:56:36.326Z,18.50
2018-09-19T04:59:10.011Z,18.40
2018-09-19T05:01:41.708Z,18.40
2018-09-19T05:04:13.826Z,18.40
2018-09-19T05:06:44.994Z,18.40
2018-09-19T05:09:17.066Z,18.30
2018-09-19T05:11:48.513Z,18.40
2018-09-19T05:14:28.214Z,18.40
2018-09-19T05:16:59.907Z,18.40
2018-09-19T05:19:41.211Z,18.30
2018-09-19T05:22:12.061Z,18.30
2018-09-19T05:24:43.448Z,18.30
2018-09-19T05:27:16.710Z,18.30
2018-09-19T05:29:50.260Z,18.30
2018-09-19T05:32:29.516Z,18.30
2018-09-19T05:35:01.865Z,18.30
2018-09-19T05:37:33.354Z,18.30
2018-09-19T05:40:05.616Z,18.30
2018-09-19T05:42:46.093Z,18.30
2018-09-19T05:45:17.763Z,18.40
2018-09-19T05:47:57.002Z,18.40
2018-09-19T05:50:28.712Z,18.40
2018-09-19T05:52:59.083Z,18.40
2018-09-19T05:55:31.398Z,18.50
2018-09-19T05:58:01.677Z,18.50
2018-09-19T06:00:32.897Z,18.50
2018-09-19T06:03:04.955Z,18.50
2018-09-19T06:05:35.776Z,18.50
2018-09-19T06:08:06.486Z,18.50
2018-09-19T06:10:38.357Z,18.50
2018-09-19T06:13:10.117Z,18.50
2018-09-19T06:15:42.966Z,18.50
2018-09-19T06:18:14.186Z,18.60
2018-09-19T06:20:45.539Z,18.60
2018-09-19T06:23:16.627Z,18.60
2018-09-19T06:25:48.135Z,18.60
2018-09-19T06:28:19.288Z,18.60
2018-09-19T06:30:50.270Z,18.60
2018-09-19T06:33:22.303Z,18.60
2018-09-19T06:35:53.326Z,18.70
2018-09-19T06:38:24.541Z,18.70
2018-09-19T06:40:56.109Z,18.70
2018-09-19T06:43:26.529Z,18.70
2018-09-19T06:45:57.986Z,18.80
2018-09-19T06:48:30.186Z,18.80
2018-09-19T06:51:02.588Z,18.90
2018-09-19T06:53:33.557Z,18.90
2018-09-19T06:56:04.760Z,18.90
2018-09-19T06:58:36.026Z,19.00
2018-09-19T07:01:07.456Z,19.00
2018-09-19T07:03:39.246Z,19.00
2018-09-19T07:06:10.756Z,19.10
2018-09-19T07:08:41.780Z,19.10
2018-09-19T07:11:13.686Z,19.10
2018-09-19T07:13:44.925Z,19.20
2018-09-19T07:16:16.731Z,19.30
2018-09-19T07:18:49.703Z,19.30
2018-09-19T07:21:21.016Z,19.30
2018-09-19T07:23:51.909Z,19.30
2018-09-19T07:26:27.226Z,19.30
2018-09-19T07:28:57.995Z,19.30
2018-09-19T07:31:30.675Z,19.40
2018-09-19T07:34:02.466Z,19.40
2018-09-19T07:36:33.976Z,19.40
2018-09-19T07:39:09.339Z,19.50
2018-09-19T07:41:42.000Z,19.50
2018-09-19T07:44:13.213Z,19.50
2018-09-19T07:46:44.264Z,19.50
2018-09-19T07:49:15.923Z,19.50
2018-09-19T07:57:30.886Z,19.60
2018-09-19T08:00:10.936Z,19.60
2018-09-19T08:02:51.905Z,19.50
2018-09-19T08:05:31.696Z,19.50
2018-09-19T08:08:11.552Z,19.50
2018-09-19T08:19:16.078Z,19.70
2018-09-19T08:21:53.902Z,19.80
2018-09-19T08:24:33.584Z,19.80
2018-09-19T08:27:13.693Z,19.80
2018-09-19T08:32:36.826Z,19.90
2018-09-19T08:35:16.419Z,19.90
2018-09-19T08:37:56.044Z,20.00
2018-09-19T08:40:36.017Z,20.10
2018-09-19T08:43:14.883Z,20.10
2018-09-19T08:45:53.344Z,20.20
2018-09-19T08:48:33.260Z,20.30
2018-09-19T08:51:13.282Z,20.30
2018-09-19T08:53:53.170Z,20.40
2018-09-19T08:56:32.962Z,20.40
2018-09-19T08:59:12.768Z,20.50
2018-09-19T09:01:52.214Z,20.60
2018-09-19T09:04:31.833Z,20.60
2018-09-19T09:07:09.769Z,20.60
2018-09-19T09:09:49.651Z,20.70
2018-09-19T09:12:30.134Z,20.80
2018-09-19T09:15:07.231Z,21.00
2018-09-19T09:17:46.449Z,21.10
2018-09-19T09:20:24.815Z,21.20
2018-09-19T09:23:04.523Z,21.40
2018-09-19T09:25:38.133Z,21.50
2018-09-19T09:28:15.510Z,21.70
2018-09-19T09:30:55.299Z,21.90
2018-09-19T09:33:35.163Z,22.20
2018-09-19T09:36:15.128Z,22.50
2018-09-19T09:38:54.690Z,22.80
2018-09-19T09:41:34.235Z,23.00
2018-09-19T09:44:13.856Z,23.30
2018-09-19T09:46:53.434Z,23.60
2018-09-19T09:49:31.522Z,23.80
2018-09-19T09:52:10.864Z,24.00
2018-09-19T09:54:50.300Z,24.20
2018-09-19T09:57:27.827Z,24.30
2018-09-19T10:00:06.144Z,24.40
2018-09-19T10:02:45.712Z,24.40
2018-09-19T10:05:25.484Z,24.40
2018-09-19T10:08:05.073Z,24.60
2018-09-19T10:10:45.013Z,24.70
2018-09-19T10:13:24.701Z,24.80
2018-09-19T10:16:04.435Z,25.00
2018-09-19T10:18:44.558Z,25.00
2018-09-19T10:21:24.016Z,25.10
2018-09-19T10:24:03.689Z,25.10
2018-09-19T10:26:43.465Z,25.30
2018-09-19T10:29:23.550Z,25.40
2018-09-19T10:32:02.931Z,25.50
2018-09-19T10:34:42.735Z,25.50
2018-09-19T10:37:22.509Z,25.50
2018-09-19T10:40:00.740Z,25.60
2018-09-19T10:42:39.962Z,25.60
2018-09-19T10:45:19.322Z,25.70
2018-09-19T10:47:59.344Z,25.70
2018-09-19T10:50:40.203Z,25.70
2018-09-19T10:53:19.532Z,25.70
2018-09-19T10:55:59.819Z,25.80
2018-09-19T10:58:39.481Z,25.80
2018-09-19T11:01:20.071Z,25.70
2018-09-19T11:04:00.001Z,25.60
2018-09-19T11:06:40.123Z,25.60
2018-09-19T11:09:20.321Z,25.60
2018-09-19T11:11:59.725Z,25.60
2018-09-19T11:14:39.650Z,25.60
2018-09-19T11:17:19.080Z,25.60
2018-09-19T11:20:00.147Z,25.70
2018-09-19T11:22:40.007Z,25.90
2018-09-19T11:25:19.780Z,25.90
2018-09-19T11:28:00.102Z,25.90
2018-09-19T11:30:40.287Z,25.80
2018-09-19T11:33:18.075Z,25.90
2018-09-19T11:35:57.969Z,26.00
2018-09-19T11:38:38.416Z,26.00
2018-09-19T11:41:18.298Z,26.10
2018-09-19T11:43:58.146Z,26.10
2018-09-19T11:46:37.910Z,26.10
2018-09-19T11:49:17.587Z,26.20
2018-09-19T11:51:57.187Z,26.20
2018-09-19T11:54:36.436Z,26.30
2018-09-19T11:57:15.627Z,26.30
2018-09-19T11:59:55.136Z,26.40
2018-09-19T12:02:35.031Z,26.40
2018-09-19T12:05:16.633Z,26.30
2018-09-19T12:07:56.409Z,26.20
2018-09-19T12:10:36.136Z,26.10
2018-09-19T12:13:16.399Z,25.90
2018-09-19T12:15:56.223Z,25.70
2018-09-19T12:18:33.882Z,25.60
2018-09-19T12:21:13.758Z,25.60
2018-09-19T12:23:50.300Z,25.70
2018-09-19T12:26:29.835Z,25.70
2018-09-19T12:29:10.008Z,25.80
2018-09-19T12:31:50.393Z,25.90
2018-09-19T12:34:30.254Z,26.00
2018-09-19T12:37:01.924Z,26.10
2018-09-19T12:39:41.917Z,26.10
2018-09-19T12:42:22.075Z,26.10
2018-09-19T12:45:02.613Z,26.00
2018-09-19T12:47:42.892Z,25.90
2018-09-19T12:50:23.103Z,25.90
2018-09-19T12:53:01.019Z,25.80
2018-09-19T12:55:40.698Z,25.80
2018-09-19T12:58:19.917Z,25.70
2018-09-19T13:00:59.585Z,25.60
2018-09-19T13:03:36.312Z,25.50
2018-09-19T13:06:16.461Z,25.50
2018-09-19T13:08:56.103Z,25.50
2018-09-19T13:11:37.090Z,25.50
2018-09-19T13:14:17.065Z,25.40
2018-09-19T13:16:56.469Z,25.50
2018-09-19T13:19:36.867Z,25.50
2018-09-19T13:22:17.254Z,25.60
2018-09-19T13:24:57.722Z,25.60
2018-09-19T13:27:38.805Z,25.70
2018-09-19T13:30:18.607Z,25.60
2018-09-19T13:32:58.249Z,25.50
2018-09-19T13:35:37.962Z,25.60
2018-09-19T13:38:16.426Z,25.60
2018-09-19T13:40:56.256Z,25.50
2018-09-19T13:43:36.037Z,25.50
2018-09-19T13:46:16.026Z,25.50
2018-09-19T13:48:59.388Z,25.40
2018-09-19T13:51:39.412Z,25.40
2018-09-19T13:54:19.271Z,25.30
2018-09-19T13:56:51.781Z,25.40
2018-09-19T13:59:31.980Z,25.40
2018-09-19T14:02:10.995Z,25.30
2018-09-19T14:04:49.631Z,25.30
2018-09-19T14:07:29.698Z,25.30
2018-09-19T14:10:09.577Z,25.10
2018-09-19T14:12:49.473Z,25.10
2018-09-19T14:15:29.792Z,25.10
2018-09-19T14:18:10.564Z,25.00
2018-09-19T14:20:50.298Z,25.00
2018-09-19T14:23:31.772Z,25.00
2018-09-19T14:26:04.113Z,25.00
2018-09-19T14:28:42.539Z,25.00
2018-09-19T14:31:21.283Z,25.00
2018-09-19T14:34:01.248Z,25.10
2018-09-19T14:36:41.097Z,25.10
2018-09-19T14:39:20.768Z,25.00
2018-09-19T14:42:00.884Z,25.00
2018-09-19T14:44:40.818Z,25.00
2018-09-19T14:47:20.425Z,25.00
2018-09-19T14:49:52.216Z,25.00
2018-09-19T14:52:26.526Z,25.00
2018-09-19T14:55:06.485Z,24.90
2018-09-19T14:57:46.429Z,24.80
2018-09-19T15:00:26.621Z,24.80
2018-09-19T15:03:06.509Z,24.80
2018-09-19T15:05:46.528Z,24.70
2018-09-19T15:08:26.409Z,24.70
2018-09-19T15:11:06.456Z,24.70
2018-09-19T15:13:46.386Z,24.60
2018-09-19T15:16:25.655Z,24.60
2018-09-19T15:19:07.670Z,24.60
2018-09-19T15:21:48.938Z,24.60
2018-09-19T15:24:28.919Z,24.60
2018-09-19T15:27:07.054Z,24.60
2018-09-19T15:29:47.041Z,24.50
2018-09-19T15:32:27.104Z,24.50
2018-09-19T15:35:07.166Z,24.40
2018-09-19T15:37:46.986Z,24.40
2018-09-19T15:40:21.649Z,24.40
2018-09-19T15:43:02.545Z,24.30
2018-09-19T15:45:43.025Z,24.30
2018-09-19T15:48:24.211Z,24.30
2018-09-19T15:51:04.132Z,24.30
2018-09-19T15:53:44.838Z,24.30
2018-09-19T15:56:26.525Z,24.30
2018-09-19T15:59:09.672Z,24.30
2018-09-19T16:01:40.550Z,24.30
2018-09-19T16:04:11.280Z,24.20
2018-09-19T16:06:42.102Z,24.20
2018-09-19T16:09:13.650Z,24.20
2018-09-19T16:11:44.821Z,24.20
2018-09-19T16:14:15.880Z,24.10
2018-09-19T16:16:46.610Z,24.10
2018-09-19T16:19:18.090Z,24.00
2018-09-19T16:22:32.922Z,24.00
2018-09-19T16:25:08.571Z,24.00
2018-09-19T16:27:54.570Z,24.00
2018-09-19T16:30:36.665Z,23.90
2018-09-19T16:33:17.603Z,23.90
2018-09-19T16:36:01.798Z,23.80
2018-09-19T16:38:41.702Z,23.80
2018-09-19T16:41:21.540Z,23.70
2018-09-19T16:44:01.652Z,23.70
2018-09-19T16:46:51.539Z,23.60
2018-09-19T16:49:32.196Z,23.60
2018-09-19T16:52:25.643Z,23.50
2018-09-19T16:55:05.947Z,23.50
2018-09-19T16:57:45.845Z,23.40
2018-09-19T17:00:18.447Z,23.40
2018-09-19T17:02:49.407Z,23.40
2018-09-19T17:05:20.577Z,23.30
2018-09-19T17:07:50.737Z,23.20
2018-09-19T17:10:21.539Z,23.20
2018-09-19T17:13:01.265Z,23.10
2018-09-19T17:15:32.985Z,23.10
2018-09-19T17:18:03.699Z,23.10
2018-09-19T17:20:36.249Z,23.00
2018-09-19T17:23:06.749Z,22.90
2018-09-19T17:25:37.689Z,22.80
2018-09-19T17:28:08.458Z,22.80
2018-09-19T17:30:39.570Z,22.70
2018-09-19T17:33:10.451Z,22.60
2018-09-19T17:35:41.912Z,22.50
2018-09-19T17:38:13.808Z,22.50
2018-09-19T17:40:45.030Z,22.50
2018-09-19T17:43:15.608Z,22.40
2018-09-19T17:45:46.560Z,22.40
2018-09-19T17:48:18.118Z,22.30
2018-09-19T17:50:50.329Z,22.20
2018-09-19T17:53:21.636Z,22.20
2018-09-19T17:55:53.989Z,22.10
2018-09-19T17:58:25.759Z,22.00
2018-09-19T18:00:57.799Z,22.00
2018-09-19T18:03:30.440Z,21.90
2018-09-19T18:06:02.522Z,21.80
2018-09-19T18:08:33.539Z,21.70
2018-09-19T18:11:08.379Z,21.70
2018-09-19T18:13:39.820Z,21.60
2018-09-19T18:16:14.071Z,21.60
2018-09-19T18:18:45.580Z,21.50
2018-09-19T18:21:20.890Z,21.50
2018-09-19T18:23:53.161Z,21.50
2018-09-19T18:26:23.670Z,21.40
2018-09-19T18:28:55.072Z,21.40
2018-09-19T18:31:28.361Z,21.40
2018-09-19T18:33:58.750Z,21.40
2018-09-19T18:36:31.350Z,21.40
2018-09-19T18:39:01.867Z,21.40
2018-09-19T18:41:42.324Z,21.30
2018-09-19T18:44:13.330Z,21.30
2018-09-19T18:46:46.269Z,21.30
2018-09-19T18:49:17.429Z,21.20
2018-09-19T18:51:49.069Z,21.20
2018-09-19T18:54:22.349Z,21.20
2018-09-19T18:56:53.838Z,21.10
2018-09-19T18:59:24.689Z,21.10
2018-09-19T19:01:55.630Z,21.10
2018-09-19T19:04:27.958Z,21.10
2018-09-19T19:06:59.910Z,21.10
2018-09-19T19:09:30.489Z,21.00
2018-09-19T19:12:01.738Z,21.00
2018-09-19T19:14:33.119Z,20.90
2018-09-19T19:17:13.342Z,21.00
2018-09-19T19:19:45.635Z,20.90
2018-09-19T19:22:25.187Z,20.90
2018-09-19T19:24:56.999Z,20.80
2018-09-19T19:27:29.362Z,20.70
2018-09-19T19:30:03.988Z,20.70
2018-09-19T19:32:35.478Z,20.60
2018-09-19T19:35:06.489Z,20.60
2018-09-19T19:37:38.028Z,20.60
2018-09-19T19:40:08.712Z,20.60
2018-09-19T19:42:40.329Z,20.60
2018-09-19T19:45:13.305Z,20.60
2018-09-19T19:47:47.951Z,20.60
2018-09-19T19:50:21.080Z,20.50
2018-09-19T19:52:55.109Z,20.50
2018-09-19T19:55:31.949Z,20.40
2018-09-19T19:58:06.708Z,20.40
2018-09-19T20:00:39.738Z,20.40
2018-09-19T20:03:15.167Z,20.40
2018-09-19T20:05:45.965Z,20.40
2018-09-19T20:08:17.269Z,20.30
2018-09-19T20:10:48.860Z,20.40
2018-09-19T20:13:20.139Z,20.30
2018-09-19T20:15:51.129Z,20.30
2018-09-19T20:18:22.449Z,20.20
2018-09-19T20:20:54.249Z,20.20
2018-09-19T20:23:25.799Z,20.10
2018-09-19T20:25:57.159Z,20.10
2018-09-19T20:28:28.954Z,20.10
2018-09-19T20:31:00.942Z,20.00
2018-09-19T20:33:31.628Z,20.10
2018-09-19T20:36:03.001Z,20.10
2018-09-19T20:38:34.358Z,20.10
2018-09-19T20:41:06.329Z,20.10
2018-09-19T20:43:38.079Z,20.10
2018-09-19T20:46:09.489Z,20.10
2018-09-19T20:48:40.899Z,20.10
2018-09-19T20:51:12.758Z,20.00
2018-09-19T20:53:45.219Z,20.00
2018-09-19T20:56:16.913Z,20.00
2018-09-19T20:58:48.019Z,20.00
2018-09-19T21:01:19.480Z,20.00
2018-09-19T21:03:50.849Z,20.00
2018-09-19T21:06:22.860Z,19.90
2018-09-19T21:08:54.459Z,19.90
2018-09-19T21:11:27.750Z,19.90
2018-09-19T21:13:59.679Z,19.80
2018-09-19T21:16:31.228Z,19.80
2018-09-19T21:19:02.408Z,19.80
2018-09-19T21:21:34.195Z,19.80
2018-09-19T21:24:05.879Z,19.70
2018-09-19T21:26:38.109Z,19.70
2018-09-19T21:29:08.939Z,19.60
2018-09-19T21:31:40.851Z,19.60
2018-09-19T21:34:12.659Z,19.60
2018-09-19T21:36:44.127Z,19.60
2018-09-19T21:39:18.059Z,19.60
2018-09-19T21:41:51.218Z,19.60
2018-09-19T21:44:22.088Z,19.60
2018-09-19T21:46:55.173Z,19.60
2018-09-19T21:49:37.529Z,19.60
2018-09-19T21:52:17.060Z,19.60
2018-09-19T21:55:03.169Z,19.60
2018-09-19T21:57:41.475Z,19.60
2018-09-19T22:00:19.389Z,19.60
2018-09-19T22:02:51.512Z,19.50
2018-09-19T22:05:30.090Z,19.50
2018-09-19T22:08:07.396Z,19.50
2018-09-19T22:10:43.760Z,19.50
2018-09-19T22:16:07.529Z,19.40
2018-09-19T22:18:43.508Z,19.40
2018-09-19T22:21:19.348Z,19.40
2018-09-19T22:23:50.638Z,19.30
2018-09-19T22:26:29.270Z,19.30
2018-09-19T22:29:11.489Z,19.20
2018-09-19T22:31:51.560Z,19.20
2018-09-19T22:37:58.328Z,19.10
2018-09-19T22:40:34.981Z,19.10
2018-09-19T22:43:18.769Z,19.20
2018-09-19T22:48:40.438Z,19.10
2018-09-19T22:51:11.718Z,19.10
2018-09-19T22:53:44.788Z,19.10
2018-09-19T22:56:26.147Z,19.00
2018-09-19T22:58:58.358Z,19.00
2018-09-19T23:01:29.357Z,19.10
2018-09-19T23:04:00.140Z,19.10
2018-09-19T23:06:31.198Z,19.10
2018-09-19T23:09:02.188Z,19.10
2018-09-19T23:11:33.390Z,19.10
2018-09-19T23:14:03.898Z,19.10
2018-09-19T23:16:35.847Z,19.10
2018-09-19T23:19:06.458Z,19.10
2018-09-19T23:21:38.918Z,19.10
2018-09-19T23:24:10.338Z,19.00
2018-09-19T23:26:40.818Z,18.90
2018-09-19T23:29:12.344Z,18.90
2018-09-19T23:31:45.109Z,18.80
2018-09-19T23:34:17.491Z,18.80
2018-09-19T23:36:57.648Z,18.80
2018-09-19T23:39:28.888Z,18.80
2018-09-19T23:42:00.259Z,18.80
2018-09-19T23:44:32.609Z,18.70
2018-09-19T23:47:05.269Z,18.80
2018-09-19T23:49:36.639Z,18.80
2018-09-19T23:52:08.376Z,18.80
2018-09-19T23:54:39.783Z,18.80
2018-09-19T23:57:11.813Z,18.80
2018-09-19T23:59:53.058Z,18.80
